sensor_id;sensor_type;location;lat;lon;timestamp;temperature;humidity
326;DHT22;150;52.352;14.058;2024-01-06T00:02:26;1.40;49.70
326;DHT22;150;52.352;14.058;2024-01-06T00:04:52;1.50;49.90
326;DHT22;150;52.352;14.058;2024-01-06T00:07:19;1.60;49.50
326;DHT22;150;52.352;14.058;2024-01-06T00:09:45;1.60;49.30
326;DHT22;150;52.352;14.058;2024-01-06T00:12:12;1.60;49.00
326;DHT22;150;52.352;14.058;2024-01-06T00:14:38;1.50;47.90
326;DHT22;150;52.352;14.058;2024-01-06T00:17:10;1.30;48.80
326;DHT22;150;52.352;14.058;2024-01-06T00:19:37;1.30;48.80
326;DHT22;150;52.352;14.058;2024-01-06T00:22:03;1.30;48.80
326;DHT22;150;52.352;14.058;2024-01-06T00:24:30;1.30;49.10
326;DHT22;150;52.352;14.058;2024-01-06T00:26:57;1.30;49.70
326;DHT22;150;52.352;14.058;2024-01-06T00:29:23;1.40;49.80
326;DHT22;150;52.352;14.058;2024-01-06T00:31:50;1.40;48.90
326;DHT22;150;52.352;14.058;2024-01-06T00:34:18;1.40;48.90
326;DHT22;150;52.352;14.058;2024-01-06T00:36:44;1.40;48.80
326;DHT22;150;52.352;14.058;2024-01-06T00:39:11;1.50;48.90
326;DHT22;150;52.352;14.058;2024-01-06T00:41:37;1.50;49.00
326;DHT22;150;52.352;14.058;2024-01-06T00:44:04;1.50;48.90
326;DHT22;150;52.352;14.058;2024-01-06T00:46:30;1.60;49.00
326;DHT22;150;52.352;14.058;2024-01-06T00:48:57;1.60;49.00
326;DHT22;150;52.352;14.058;2024-01-06T00:51:25;1.40;48.40
326;DHT22;150;52.352;14.058;2024-01-06T00:53:52;1.30;48.80
326;DHT22;150;52.352;14.058;2024-01-06T00:56:19;1.30;48.80
326;DHT22;150;52.352;14.058;2024-01-06T00:58:45;1.30;49.20
326;DHT22;150;52.352;14.058;2024-01-06T01:01:12;1.30;49.70
326;DHT22;150;52.352;14.058;2024-01-06T01:03:38;1.20;49.40
326;DHT22;150;52.352;14.058;2024-01-06T01:06:05;1.20;49.20
326;DHT22;150;52.352;14.058;2024-01-06T01:08:33;1.20;49.90
326;DHT22;150;52.352;14.058;2024-01-06T01:10:59;1.10;49.60
326;DHT22;150;52.352;14.058;2024-01-06T01:13:26;1.10;49.80
326;DHT22;150;52.352;14.058;2024-01-06T01:15:52;1.20;50.30
326;DHT22;150;52.352;14.058;2024-01-06T01:18:19;1.30;49.70
326;DHT22;150;52.352;14.058;2024-01-06T01:20:46;1.30;49.20
326;DHT22;150;52.352;14.058;2024-01-06T01:23:12;1.30;49.30
326;DHT22;150;52.352;14.058;2024-01-06T01:25:40;1.40;49.20
326;DHT22;150;52.352;14.058;2024-01-06T01:28:07;1.40;48.80
326;DHT22;150;52.352;14.058;2024-01-06T01:30:33;1.30;48.80
326;DHT22;150;52.352;14.058;2024-01-06T01:33:00;1.40;48.80
326;DHT22;150;52.352;14.058;2024-01-06T01:35:27;1.40;49.20
326;DHT22;150;52.352;14.058;2024-01-06T01:37:53;1.30;48.80
326;DHT22;150;52.352;14.058;2024-01-06T01:40:20;1.20;49.20
326;DHT22;150;52.352;14.058;2024-01-06T01:42:48;1.30;49.40
326;DHT22;150;52.352;14.058;2024-01-06T01:45:14;1.30;49.60
326;DHT22;150;52.352;14.058;2024-01-06T01:47:41;1.30;48.80
326;DHT22;150;52.352;14.058;2024-01-06T01:50:08;1.30;48.80
326;DHT22;150;52.352;14.058;2024-01-06T01:52:36;1.30;48.80
326;DHT22;150;52.352;14.058;2024-01-06T01:55:04;1.20;48.70
326;DHT22;150;52.352;14.058;2024-01-06T01:57:31;1.20;49.00
326;DHT22;150;52.352;14.058;2024-01-06T02:00:00;1.20;48.90
326;DHT22;150;52.352;14.058;2024-01-06T02:02:27;1.20;48.70
326;DHT22;150;52.352;14.058;2024-01-06T02:04:55;1.20;49.40
326;DHT22;150;52.352;14.058;2024-01-06T02:07:22;1.10;48.60
326;DHT22;150;52.352;14.058;2024-01-06T02:09:49;1.20;49.30
326;DHT22;150;52.352;14.058;2024-01-06T02:12:15;1.10;49.30
326;DHT22;150;52.352;14.058;2024-01-06T02:14:42;1.10;49.50
326;DHT22;150;52.352;14.058;2024-01-06T02:17:10;1.10;49.50
326;DHT22;150;52.352;14.058;2024-01-06T02:19:37;1.10;49.40
326;DHT22;150;52.352;14.058;2024-01-06T02:22:04;1.20;49.70
326;DHT22;150;52.352;14.058;2024-01-06T02:24:31;1.20;49.80
326;DHT22;150;52.352;14.058;2024-01-06T02:26:58;1.30;49.90
326;DHT22;150;52.352;14.058;2024-01-06T02:29:24;1.20;49.50
326;DHT22;150;52.352;14.058;2024-01-06T02:31:51;1.30;48.90
326;DHT22;150;52.352;14.058;2024-01-06T02:34:17;1.40;48.80
326;DHT22;150;52.352;14.058;2024-01-06T02:36:44;1.40;48.40
326;DHT22;150;52.352;14.058;2024-01-06T02:39:12;1.40;47.80
326;DHT22;150;52.352;14.058;2024-01-06T02:41:38;1.40;47.70
326;DHT22;150;52.352;14.058;2024-01-06T02:44:05;1.40;48.20
326;DHT22;150;52.352;14.058;2024-01-06T02:46:31;1.40;48.10
326;DHT22;150;52.352;14.058;2024-01-06T02:48:58;1.40;47.90
326;DHT22;150;52.352;14.058;2024-01-06T02:51:25;1.40;48.10
326;DHT22;150;52.352;14.058;2024-01-06T02:53:51;1.40;48.80
326;DHT22;150;52.352;14.058;2024-01-06T02:56:19;1.40;48.40
326;DHT22;150;52.352;14.058;2024-01-06T02:58:46;1.30;47.90
326;DHT22;150;52.352;14.058;2024-01-06T03:01:12;1.30;48.20
326;DHT22;150;52.352;14.058;2024-01-06T03:03:39;1.30;48.40
326;DHT22;150;52.352;14.058;2024-01-06T03:06:06;1.20;48.60
326;DHT22;150;52.352;14.058;2024-01-06T03:08:32;1.20;48.70
326;DHT22;150;52.352;14.058;2024-01-06T03:11:00;1.20;48.70
326;DHT22;150;52.352;14.058;2024-01-06T03:13:28;1.30;48.80
326;DHT22;150;52.352;14.058;2024-01-06T03:15:54;1.20;48.70
326;DHT22;150;52.352;14.058;2024-01-06T03:18:21;1.20;48.70
326;DHT22;150;52.352;14.058;2024-01-06T03:20:47;1.10;48.60
326;DHT22;150;52.352;14.058;2024-01-06T03:23:14;1.00;48.90
326;DHT22;150;52.352;14.058;2024-01-06T03:25:40;1.10;49.40
326;DHT22;150;52.352;14.058;2024-01-06T03:28:07;1.10;49.20
326;DHT22;150;52.352;14.058;2024-01-06T03:30:35;1.10;49.50
326;DHT22;150;52.352;14.058;2024-01-06T03:33:02;1.20;49.70
326;DHT22;150;52.352;14.058;2024-01-06T03:35:29;1.20;49.40
326;DHT22;150;52.352;14.058;2024-01-06T03:37:55;1.20;49.30
326;DHT22;150;52.352;14.058;2024-01-06T03:40:22;1.20;49.20
326;DHT22;150;52.352;14.058;2024-01-06T03:42:48;1.20;48.70
326;DHT22;150;52.352;14.058;2024-01-06T03:45:15;1.20;48.70
326;DHT22;150;52.352;14.058;2024-01-06T03:47:43;1.10;48.60
326;DHT22;150;52.352;14.058;2024-01-06T03:50:09;0.90;48.90
326;DHT22;150;52.352;14.058;2024-01-06T03:52:36;1.00;49.80
326;DHT22;150;52.352;14.058;2024-01-06T03:55:03;1.00;49.60
326;DHT22;150;52.352;14.058;2024-01-06T03:57:30;1.00;49.50
326;DHT22;150;52.352;14.058;2024-01-06T03:59:58;1.00;50.60
326;DHT22;150;52.352;14.058;2024-01-06T04:02:24;1.10;49.80
326;DHT22;150;52.352;14.058;2024-01-06T04:04:52;1.10;49.10
326;DHT22;150;52.352;14.058;2024-01-06T04:07:19;1.00;49.30
326;DHT22;150;52.352;14.058;2024-01-06T04:09:45;1.00;49.70
326;DHT22;150;52.352;14.058;2024-01-06T04:12:12;1.10;49.60
326;DHT22;150;52.352;14.058;2024-01-06T04:14:39;1.10;48.70
326;DHT22;150;52.352;14.058;2024-01-06T04:17:05;1.10;49.00
326;DHT22;150;52.352;14.058;2024-01-06T04:19:32;1.10;49.60
326;DHT22;150;52.352;14.058;2024-01-06T04:22:00;1.20;49.20
326;DHT22;150;52.352;14.058;2024-01-06T04:24:27;1.30;48.80
326;DHT22;150;52.352;14.058;2024-01-06T04:26:53;1.30;48.80
326;DHT22;150;52.352;14.058;2024-01-06T04:29:20;1.30;48.80
326;DHT22;150;52.352;14.058;2024-01-06T04:31:49;1.30;47.80
326;DHT22;150;52.352;14.058;2024-01-06T04:34:16;1.30;48.00
326;DHT22;150;52.352;14.058;2024-01-06T04:36:43;1.20;48.50
326;DHT22;150;52.352;14.058;2024-01-06T04:39:11;1.20;48.50
326;DHT22;150;52.352;14.058;2024-01-06T04:41:38;1.10;48.60
326;DHT22;150;52.352;14.058;2024-01-06T04:44:05;1.10;48.60
326;DHT22;150;52.352;14.058;2024-01-06T04:46:32;1.10;49.10
326;DHT22;150;52.352;14.058;2024-01-06T04:48:58;1.10;48.90
326;DHT22;150;52.352;14.058;2024-01-06T04:51:25;1.00;48.90
326;DHT22;150;52.352;14.058;2024-01-06T04:53:52;1.00;49.30
326;DHT22;150;52.352;14.058;2024-01-06T04:56:20;1.10;49.60
326;DHT22;150;52.352;14.058;2024-01-06T04:58:46;1.10;49.20
326;DHT22;150;52.352;14.058;2024-01-06T05:01:13;1.10;49.20
326;DHT22;150;52.352;14.058;2024-01-06T05:03:40;1.20;49.40
326;DHT22;150;52.352;14.058;2024-01-06T05:06:06;1.20;48.70
326;DHT22;150;52.352;14.058;2024-01-06T05:08:33;1.20;48.70
326;DHT22;150;52.352;14.058;2024-01-06T05:11:02;1.10;48.60
326;DHT22;150;52.352;14.058;2024-01-06T05:13:29;1.00;48.50
326;DHT22;150;52.352;14.058;2024-01-06T05:15:56;1.10;48.60
326;DHT22;150;52.352;14.058;2024-01-06T05:18:22;1.10;48.60
326;DHT22;150;52.352;14.058;2024-01-06T05:20:49;1.00;48.50
326;DHT22;150;52.352;14.058;2024-01-06T05:23:16;1.10;48.60
326;DHT22;150;52.352;14.058;2024-01-06T05:25:42;1.10;48.60
326;DHT22;150;52.352;14.058;2024-01-06T05:28:09;1.10;48.60
326;DHT22;150;52.352;14.058;2024-01-06T05:30:37;1.10;48.60
326;DHT22;150;52.352;14.058;2024-01-06T05:33:04;1.10;48.60
326;DHT22;150;52.352;14.058;2024-01-06T05:35:30;1.00;48.50
326;DHT22;150;52.352;14.058;2024-01-06T05:37:57;1.00;48.60
326;DHT22;150;52.352;14.058;2024-01-06T05:40:23;0.90;49.10
326;DHT22;150;52.352;14.058;2024-01-06T05:42:50;1.00;49.60
326;DHT22;150;52.352;14.058;2024-01-06T05:45:17;0.90;49.20
326;DHT22;150;52.352;14.058;2024-01-06T05:47:45;0.90;49.30
326;DHT22;150;52.352;14.058;2024-01-06T05:50:15;0.90;49.40
326;DHT22;150;52.352;14.058;2024-01-06T05:52:42;0.90;49.30
326;DHT22;150;52.352;14.058;2024-01-06T05:55:11;0.90;49.30
326;DHT22;150;52.352;14.058;2024-01-06T05:57:38;0.90;50.10
326;DHT22;150;52.352;14.058;2024-01-06T06:00:08;0.90;49.30
326;DHT22;150;52.352;14.058;2024-01-06T06:02:36;0.90;49.30
326;DHT22;150;52.352;14.058;2024-01-06T06:05:04;1.00;48.80
326;DHT22;150;52.352;14.058;2024-01-06T06:07:31;1.00;48.50
326;DHT22;150;52.352;14.058;2024-01-06T06:09:57;1.00;48.50
326;DHT22;150;52.352;14.058;2024-01-06T06:12:24;0.90;48.40
326;DHT22;150;52.352;14.058;2024-01-06T06:14:51;0.90;48.40
326;DHT22;150;52.352;14.058;2024-01-06T06:17:17;0.90;48.80
326;DHT22;150;52.352;14.058;2024-01-06T06:19:44;1.00;48.80
326;DHT22;150;52.352;14.058;2024-01-06T06:22:12;1.10;48.80
326;DHT22;150;52.352;14.058;2024-01-06T06:24:38;1.10;48.30
326;DHT22;150;52.352;14.058;2024-01-06T06:27:05;1.10;47.80
326;DHT22;150;52.352;14.058;2024-01-06T06:29:31;1.10;48.10
326;DHT22;150;52.352;14.058;2024-01-06T06:31:58;1.20;48.10
326;DHT22;150;52.352;14.058;2024-01-06T06:34:25;1.20;47.70
326;DHT22;150;52.352;14.058;2024-01-06T06:36:51;1.20;47.10
326;DHT22;150;52.352;14.058;2024-01-06T06:39:19;1.20;47.20
326;DHT22;150;52.352;14.058;2024-01-06T06:41:46;1.30;47.90
326;DHT22;150;52.352;14.058;2024-01-06T06:44:12;1.30;47.10
326;DHT22;150;52.352;14.058;2024-01-06T06:46:39;1.40;47.00
326;DHT22;150;52.352;14.058;2024-01-06T06:49:06;1.40;46.40
326;DHT22;150;52.352;14.058;2024-01-06T06:51:32;1.30;46.40
326;DHT22;150;52.352;14.058;2024-01-06T06:53:59;1.30;47.40
326;DHT22;150;52.352;14.058;2024-01-06T06:56:27;1.30;46.80
326;DHT22;150;52.352;14.058;2024-01-06T06:58:54;1.20;46.80
326;DHT22;150;52.352;14.058;2024-01-06T07:01:20;1.20;47.40
326;DHT22;150;52.352;14.058;2024-01-06T07:03:47;1.20;47.80
326;DHT22;150;52.352;14.058;2024-01-06T07:06:15;1.10;47.80
326;DHT22;150;52.352;14.058;2024-01-06T07:08:42;1.00;48.20
326;DHT22;150;52.352;14.058;2024-01-06T07:11:08;1.10;48.60
326;DHT22;150;52.352;14.058;2024-01-06T07:13:38;1.00;48.50
326;DHT22;150;52.352;14.058;2024-01-06T07:16:05;1.00;48.50
326;DHT22;150;52.352;14.058;2024-01-06T07:18:32;0.90;48.40
326;DHT22;150;52.352;14.058;2024-01-06T07:20:58;0.80;49.30
326;DHT22;150;52.352;14.058;2024-01-06T07:23:25;0.80;50.00
326;DHT22;150;52.352;14.058;2024-01-06T07:25:52;0.90;50.10
326;DHT22;150;52.352;14.058;2024-01-06T07:28:18;1.00;50.10
326;DHT22;150;52.352;14.058;2024-01-06T07:30:47;1.10;50.20
326;DHT22;150;52.352;14.058;2024-01-06T07:33:13;1.10;48.70
326;DHT22;150;52.352;14.058;2024-01-06T07:35:40;1.10;48.60
326;DHT22;150;52.352;14.058;2024-01-06T07:38:08;1.00;48.30
326;DHT22;150;52.352;14.058;2024-01-06T07:40:35;0.80;49.10
326;DHT22;150;52.352;14.058;2024-01-06T07:43:02;0.80;50.00
326;DHT22;150;52.352;14.058;2024-01-06T07:45:32;0.80;49.90
326;DHT22;150;52.352;14.058;2024-01-06T07:48:00;0.80;50.00
326;DHT22;150;52.352;14.058;2024-01-06T07:50:26;0.80;50.30
326;DHT22;150;52.352;14.058;2024-01-06T07:52:53;0.70;50.40
326;DHT22;150;52.352;14.058;2024-01-06T07:55:20;0.60;50.60
326;DHT22;150;52.352;14.058;2024-01-06T07:57:46;0.70;51.40
326;DHT22;150;52.352;14.058;2024-01-06T08:00:13;0.80;51.40
326;DHT22;150;52.352;14.058;2024-01-06T08:02:41;0.80;51.60
326;DHT22;150;52.352;14.058;2024-01-06T08:05:08;0.90;50.80
326;DHT22;150;52.352;14.058;2024-01-06T08:07:35;0.80;50.60
326;DHT22;150;52.352;14.058;2024-01-06T08:10:02;0.80;50.70
326;DHT22;150;52.352;14.058;2024-01-06T08:12:30;0.90;50.90
326;DHT22;150;52.352;14.058;2024-01-06T08:14:56;0.90;50.70
326;DHT22;150;52.352;14.058;2024-01-06T08:17:23;1.00;50.70
326;DHT22;150;52.352;14.058;2024-01-06T08:19:49;1.00;50.60
326;DHT22;150;52.352;14.058;2024-01-06T08:22:17;0.80;50.70
326;DHT22;150;52.352;14.058;2024-01-06T08:24:44;0.80;51.10
326;DHT22;150;52.352;14.058;2024-01-06T08:27:10;0.90;51.60
326;DHT22;150;52.352;14.058;2024-01-06T08:29:37;1.00;51.00
326;DHT22;150;52.352;14.058;2024-01-06T08:32:04;1.00;50.90
326;DHT22;150;52.352;14.058;2024-01-06T08:34:31;1.00;50.40
326;DHT22;150;52.352;14.058;2024-01-06T08:36:58;0.90;50.20
326;DHT22;150;52.352;14.058;2024-01-06T08:39:26;1.00;50.60
326;DHT22;150;52.352;14.058;2024-01-06T08:41:52;0.90;49.90
326;DHT22;150;52.352;14.058;2024-01-06T08:44:19;0.90;50.80
326;DHT22;150;52.352;14.058;2024-01-06T08:46:45;0.90;50.70
326;DHT22;150;52.352;14.058;2024-01-06T08:49:12;1.00;51.40
326;DHT22;150;52.352;14.058;2024-01-06T08:51:38;0.90;51.30
326;DHT22;150;52.352;14.058;2024-01-06T08:54:05;0.90;50.60
326;DHT22;150;52.352;14.058;2024-01-06T08:56:34;0.80;50.20
326;DHT22;150;52.352;14.058;2024-01-06T08:59:01;0.80;50.80
326;DHT22;150;52.352;14.058;2024-01-06T09:01:28;0.70;50.60
326;DHT22;150;52.352;14.058;2024-01-06T09:03:55;0.70;50.70
326;DHT22;150;52.352;14.058;2024-01-06T09:06:21;0.70;51.20
326;DHT22;150;52.352;14.058;2024-01-06T09:08:48;0.70;51.10
326;DHT22;150;52.352;14.058;2024-01-06T09:11:15;0.60;52.20
326;DHT22;150;52.352;14.058;2024-01-06T09:13:42;0.70;51.30
326;DHT22;150;52.352;14.058;2024-01-06T09:16:09;0.70;51.40
326;DHT22;150;52.352;14.058;2024-01-06T09:18:36;0.70;51.40
326;DHT22;150;52.352;14.058;2024-01-06T09:21:02;0.80;51.90
326;DHT22;150;52.352;14.058;2024-01-06T09:23:29;0.70;50.50
326;DHT22;150;52.352;14.058;2024-01-06T09:25:57;0.70;50.60
326;DHT22;150;52.352;14.058;2024-01-06T09:28:23;0.70;50.20
326;DHT22;150;52.352;14.058;2024-01-06T09:30:51;0.70;50.20
326;DHT22;150;52.352;14.058;2024-01-06T09:33:21;0.70;50.40
326;DHT22;150;52.352;14.058;2024-01-06T09:35:47;0.80;49.50
326;DHT22;150;52.352;14.058;2024-01-06T09:38:14;0.70;49.90
326;DHT22;150;52.352;14.058;2024-01-06T09:40:42;0.70;50.20
326;DHT22;150;52.352;14.058;2024-01-06T09:43:09;0.70;49.90
326;DHT22;150;52.352;14.058;2024-01-06T09:45:37;0.70;49.50
326;DHT22;150;52.352;14.058;2024-01-06T09:48:11;0.70;49.70
326;DHT22;150;52.352;14.058;2024-01-06T09:50:40;0.60;49.60
326;DHT22;150;52.352;14.058;2024-01-06T09:53:08;0.60;49.80
326;DHT22;150;52.352;14.058;2024-01-06T09:55:36;0.60;50.00
326;DHT22;150;52.352;14.058;2024-01-06T09:58:04;0.60;49.90
326;DHT22;150;52.352;14.058;2024-01-06T10:00:31;0.70;50.10
326;DHT22;150;52.352;14.058;2024-01-06T10:02:58;0.80;49.70
326;DHT22;150;52.352;14.058;2024-01-06T10:05:26;0.80;49.10
326;DHT22;150;52.352;14.058;2024-01-06T10:07:53;0.70;48.70
326;DHT22;150;52.352;14.058;2024-01-06T10:10:19;0.60;48.20
326;DHT22;150;52.352;14.058;2024-01-06T10:12:52;0.60;48.90
326;DHT22;150;52.352;14.058;2024-01-06T10:15:20;0.40;49.90
326;DHT22;150;52.352;14.058;2024-01-06T10:17:46;0.50;50.10
326;DHT22;150;52.352;14.058;2024-01-06T10:20:13;0.50;49.90
326;DHT22;150;52.352;14.058;2024-01-06T10:22:42;0.50;49.00
326;DHT22;150;52.352;14.058;2024-01-06T10:25:10;0.30;49.90
326;DHT22;150;52.352;14.058;2024-01-06T10:27:38;0.30;50.30
326;DHT22;150;52.352;14.058;2024-01-06T10:30:06;0.40;50.20
326;DHT22;150;52.352;14.058;2024-01-06T10:32:33;0.50;50.40
326;DHT22;150;52.352;14.058;2024-01-06T10:35:00;0.60;49.80
326;DHT22;150;52.352;14.058;2024-01-06T10:37:28;0.60;49.20
326;DHT22;150;52.352;14.058;2024-01-06T10:40:07;0.50;48.50
326;DHT22;150;52.352;14.058;2024-01-06T10:42:33;0.60;48.80
326;DHT22;150;52.352;14.058;2024-01-06T10:45:01;0.60;48.80
326;DHT22;150;52.352;14.058;2024-01-06T10:47:29;0.70;48.30
326;DHT22;150;52.352;14.058;2024-01-06T10:49:59;0.70;48.20
326;DHT22;150;52.352;14.058;2024-01-06T10:52:27;0.80;48.00
326;DHT22;150;52.352;14.058;2024-01-06T10:54:54;0.80;47.20
326;DHT22;150;52.352;14.058;2024-01-06T10:57:23;0.80;47.00
326;DHT22;150;52.352;14.058;2024-01-06T10:59:51;0.80;47.10
326;DHT22;150;52.352;14.058;2024-01-06T11:02:18;0.70;47.00
326;DHT22;150;52.352;14.058;2024-01-06T11:04:45;0.70;47.20
326;DHT22;150;52.352;14.058;2024-01-06T11:07:13;0.70;47.40
326;DHT22;150;52.352;14.058;2024-01-06T11:09:46;0.80;47.50
326;DHT22;150;52.352;14.058;2024-01-06T11:12:15;0.70;46.60
326;DHT22;150;52.352;14.058;2024-01-06T11:14:44;0.70;46.90
326;DHT22;150;52.352;14.058;2024-01-06T11:17:11;0.70;46.70
326;DHT22;150;52.352;14.058;2024-01-06T11:19:45;0.70;46.60
326;DHT22;150;52.352;14.058;2024-01-06T11:22:20;0.70;46.30
326;DHT22;150;52.352;14.058;2024-01-06T11:24:47;0.60;46.40
326;DHT22;150;52.352;14.058;2024-01-06T11:27:17;0.50;46.60
326;DHT22;150;52.352;14.058;2024-01-06T11:29:46;0.40;46.80
326;DHT22;150;52.352;14.058;2024-01-06T11:32:19;0.50;48.10
326;DHT22;150;52.352;14.058;2024-01-06T11:34:50;0.40;47.60
326;DHT22;150;52.352;14.058;2024-01-06T11:37:19;0.30;48.50
326;DHT22;150;52.352;14.058;2024-01-06T11:39:46;0.30;47.70
326;DHT22;150;52.352;14.058;2024-01-06T11:42:13;0.30;47.90
326;DHT22;150;52.352;14.058;2024-01-06T11:44:43;0.30;48.00
326;DHT22;150;52.352;14.058;2024-01-06T11:47:12;0.20;47.90
326;DHT22;150;52.352;14.058;2024-01-06T11:49:44;0.20;47.90
326;DHT22;150;52.352;14.058;2024-01-06T11:52:12;0.30;47.70
326;DHT22;150;52.352;14.058;2024-01-06T11:54:38;0.30;47.90
326;DHT22;150;52.352;14.058;2024-01-06T11:57:06;0.30;47.90
326;DHT22;150;52.352;14.058;2024-01-06T11:59:35;0.30;47.60
326;DHT22;150;52.352;14.058;2024-01-06T12:02:01;0.40;48.10
326;DHT22;150;52.352;14.058;2024-01-06T12:04:29;0.50;46.60
326;DHT22;150;52.352;14.058;2024-01-06T12:07:05;0.40;45.50
326;DHT22;150;52.352;14.058;2024-01-06T12:09:32;0.20;45.70
326;DHT22;150;52.352;14.058;2024-01-06T12:12:01;0.20;46.20
326;DHT22;150;52.352;14.058;2024-01-06T12:14:28;0.20;46.50
326;DHT22;150;52.352;14.058;2024-01-06T12:16:54;0.20;46.90
326;DHT22;150;52.352;14.058;2024-01-06T12:19:25;0.20;46.10
326;DHT22;150;52.352;14.058;2024-01-06T12:21:53;0.20;46.70
326;DHT22;150;52.352;14.058;2024-01-06T12:24:21;0.20;47.00
326;DHT22;150;52.352;14.058;2024-01-06T12:26:48;0.20;47.00
326;DHT22;150;52.352;14.058;2024-01-06T12:29:17;0.30;46.80
326;DHT22;150;52.352;14.058;2024-01-06T12:31:44;0.20;46.40
326;DHT22;150;52.352;14.058;2024-01-06T12:34:10;0.30;46.50
326;DHT22;150;52.352;14.058;2024-01-06T12:36:38;0.10;45.50
326;DHT22;150;52.352;14.058;2024-01-06T12:39:10;0.00;46.50
326;DHT22;150;52.352;14.058;2024-01-06T12:41:38;-0.10;46.90
326;DHT22;150;52.352;14.058;2024-01-06T12:44:06;-0.10;46.70
326;DHT22;150;52.352;14.058;2024-01-06T12:46:33;-0.10;46.50
326;DHT22;150;52.352;14.058;2024-01-06T12:49:00;-0.10;46.80
326;DHT22;150;52.352;14.058;2024-01-06T12:51:27;-0.10;46.70
326;DHT22;150;52.352;14.058;2024-01-06T12:53:54;-0.10;47.00
326;DHT22;150;52.352;14.058;2024-01-06T12:56:22;0.00;46.30
326;DHT22;150;52.352;14.058;2024-01-06T12:58:49;0.00;46.50
326;DHT22;150;52.352;14.058;2024-01-06T13:01:15;0.00;46.20
326;DHT22;150;52.352;14.058;2024-01-06T13:03:42;0.00;46.20
326;DHT22;150;52.352;14.058;2024-01-06T13:06:09;0.10;46.40
326;DHT22;150;52.352;14.058;2024-01-06T13:08:36;0.10;45.40
326;DHT22;150;52.352;14.058;2024-01-06T13:11:03;0.10;45.30
326;DHT22;150;52.352;14.058;2024-01-06T13:13:31;0.10;45.60
326;DHT22;150;52.352;14.058;2024-01-06T13:15:57;0.10;45.00
326;DHT22;150;52.352;14.058;2024-01-06T13:18:24;0.00;45.00
326;DHT22;150;52.352;14.058;2024-01-06T13:20:50;0.00;45.50
326;DHT22;150;52.352;14.058;2024-01-06T13:23:18;0.10;46.10
326;DHT22;150;52.352;14.058;2024-01-06T13:25:45;0.00;45.30
326;DHT22;150;52.352;14.058;2024-01-06T13:28:11;0.00;45.50
326;DHT22;150;52.352;14.058;2024-01-06T13:30:39;0.10;45.60
326;DHT22;150;52.352;14.058;2024-01-06T13:33:07;0.00;45.10
326;DHT22;150;52.352;14.058;2024-01-06T13:35:34;-0.10;45.30
326;DHT22;150;52.352;14.058;2024-01-06T13:38:02;-0.10;45.90
326;DHT22;150;52.352;14.058;2024-01-06T13:40:29;0.00;46.20
326;DHT22;150;52.352;14.058;2024-01-06T13:42:57;0.00;45.00
326;DHT22;150;52.352;14.058;2024-01-06T13:45:24;-0.10;45.10
326;DHT22;150;52.352;14.058;2024-01-06T13:47:52;-0.10;45.40
326;DHT22;150;52.352;14.058;2024-01-06T13:50:19;-0.10;45.50
326;DHT22;150;52.352;14.058;2024-01-06T13:52:45;-0.10;45.60
326;DHT22;150;52.352;14.058;2024-01-06T13:55:13;-0.10;45.70
326;DHT22;150;52.352;14.058;2024-01-06T13:57:40;-0.10;45.50
326;DHT22;150;52.352;14.058;2024-01-06T14:00:08;-0.20;45.80
326;DHT22;150;52.352;14.058;2024-01-06T14:02:35;-0.20;46.10
326;DHT22;150;52.352;14.058;2024-01-06T14:05:05;-0.10;45.80
326;DHT22;150;52.352;14.058;2024-01-06T14:07:33;-0.10;45.70
326;DHT22;150;52.352;14.058;2024-01-06T14:10:00;-0.20;46.00
326;DHT22;150;52.352;14.058;2024-01-06T14:12:29;-0.20;46.40
326;DHT22;150;52.352;14.058;2024-01-06T14:14:56;-0.10;45.90
326;DHT22;150;52.352;14.058;2024-01-06T14:17:22;-0.20;45.50
326;DHT22;150;52.352;14.058;2024-01-06T14:19:49;-0.40;46.00
326;DHT22;150;52.352;14.058;2024-01-06T14:22:16;-0.40;46.90
326;DHT22;150;52.352;14.058;2024-01-06T14:24:43;-0.40;47.20
326;DHT22;150;52.352;14.058;2024-01-06T14:27:10;-0.30;47.30
326;DHT22;150;52.352;14.058;2024-01-06T14:29:37;-0.20;47.20
326;DHT22;150;52.352;14.058;2024-01-06T14:32:05;-0.10;46.00
326;DHT22;150;52.352;14.058;2024-01-06T14:34:31;-0.10;45.70
326;DHT22;150;52.352;14.058;2024-01-06T14:36:58;-0.20;45.60
326;DHT22;150;52.352;14.058;2024-01-06T14:39:26;-0.20;45.60
326;DHT22;150;52.352;14.058;2024-01-06T14:41:52;-0.10;46.10
326;DHT22;150;52.352;14.058;2024-01-06T14:44:19;-0.20;46.00
326;DHT22;150;52.352;14.058;2024-01-06T14:46:46;-0.20;45.60
326;DHT22;150;52.352;14.058;2024-01-06T14:49:12;-0.20;46.00
326;DHT22;150;52.352;14.058;2024-01-06T14:51:39;-0.20;46.20
326;DHT22;150;52.352;14.058;2024-01-06T14:54:05;-0.30;46.30
326;DHT22;150;52.352;14.058;2024-01-06T14:56:37;-0.30;46.30
326;DHT22;150;52.352;14.058;2024-01-06T14:59:04;-0.30;46.30
326;DHT22;150;52.352;14.058;2024-01-06T15:01:31;-0.40;46.50
326;DHT22;150;52.352;14.058;2024-01-06T15:03:58;-0.40;46.50
326;DHT22;150;52.352;14.058;2024-01-06T15:06:24;-0.40;46.00
326;DHT22;150;52.352;14.058;2024-01-06T15:08:51;-0.40;46.20
326;DHT22;150;52.352;14.058;2024-01-06T15:11:19;-0.30;46.50
326;DHT22;150;52.352;14.058;2024-01-06T15:13:47;-0.20;45.50
326;DHT22;150;52.352;14.058;2024-01-06T15:16:13;-0.20;45.10
326;DHT22;150;52.352;14.058;2024-01-06T15:18:40;-0.20;44.70
326;DHT22;150;52.352;14.058;2024-01-06T15:21:06;-0.10;44.90
326;DHT22;150;52.352;14.058;2024-01-06T15:23:33;-0.10;44.30
326;DHT22;150;52.352;14.058;2024-01-06T15:25:59;-0.20;44.30
326;DHT22;150;52.352;14.058;2024-01-06T15:28:29;-0.20;44.40
326;DHT22;150;52.352;14.058;2024-01-06T15:30:56;-0.20;44.40
326;DHT22;150;52.352;14.058;2024-01-06T15:33:25;-0.20;44.60
326;DHT22;150;52.352;14.058;2024-01-06T15:35:51;-0.20;45.00
326;DHT22;150;52.352;14.058;2024-01-06T15:38:18;-0.10;44.50
326;DHT22;150;52.352;14.058;2024-01-06T15:40:45;-0.20;43.80
326;DHT22;150;52.352;14.058;2024-01-06T15:43:12;-0.20;44.20
326;DHT22;150;52.352;14.058;2024-01-06T15:45:38;-0.20;43.90
326;DHT22;150;52.352;14.058;2024-01-06T15:48:07;-0.10;44.60
326;DHT22;150;52.352;14.058;2024-01-06T15:50:34;0.00;43.10
326;DHT22;150;52.352;14.058;2024-01-06T15:53:01;0.00;43.50
326;DHT22;150;52.352;14.058;2024-01-06T15:55:27;-0.20;43.50
326;DHT22;150;52.352;14.058;2024-01-06T15:57:54;-0.20;43.60
326;DHT22;150;52.352;14.058;2024-01-06T16:00:20;-0.20;43.50
326;DHT22;150;52.352;14.058;2024-01-06T16:02:47;-0.30;44.10
326;DHT22;150;52.352;14.058;2024-01-06T16:05:15;-0.20;44.50
326;DHT22;150;52.352;14.058;2024-01-06T16:07:42;-0.10;43.90
326;DHT22;150;52.352;14.058;2024-01-06T16:10:09;-0.10;43.50
326;DHT22;150;52.352;14.058;2024-01-06T16:12:38;-0.20;43.20
326;DHT22;150;52.352;14.058;2024-01-06T16:15:06;-0.20;43.90
326;DHT22;150;52.352;14.058;2024-01-06T16:17:33;-0.40;44.20
326;DHT22;150;52.352;14.058;2024-01-06T16:19:59;-0.30;44.10
326;DHT22;150;52.352;14.058;2024-01-06T16:22:27;-0.40;43.70
326;DHT22;150;52.352;14.058;2024-01-06T16:24:54;-0.30;43.80
326;DHT22;150;52.352;14.058;2024-01-06T16:27:21;-0.30;43.60
326;DHT22;150;52.352;14.058;2024-01-06T16:29:47;-0.40;44.00
326;DHT22;150;52.352;14.058;2024-01-06T16:32:14;-0.40;43.60